Burnham, New Mexico
Current Conditions -  °F | °C
As of 7:53 AM on Friday 31 Oct 2014 (Local Time) from KFMN Reporting Station
Clear Clear  
Wind Chill: 34°   Ceiling: Unl
Heat Index: 41°   Visibility: 10mi
Dew Point: 23°   Wind: 12mph
Humidity: 49%   Direction: 100°E
Pressure: 30.29"   Gusts: NA
Location:  36.3443°N, 108.144°W
Report Text: KFMN 311353Z 10010KT 10SM CLR 05/M05 A3029 RMK AO2 SLP246 T00501050
Loading
Personal Weather Stations






























Interactive Weather Map
Tropical Storm Tracking
New forecast layout! Learn more

10-Day Weather Forecast

Advertisements
Track Severe Weather on mobile